Time;durP1;ratioP1;P1;durP2;ratioP2;P2;SDS_P1;SDS_P2;PMS_P1;PMS_P2;Temp;Humidity;BMP_temperature;BMP_pressure;BME280_temperature;BME280_humidity;BME280_pressure;Samples;Min_cycle;Max_cycle;Signal;HPM_P1;HPM_P2
2021/03/04 00:00:37;;;;;;;54.92;29.92;;;;;;;7.95;58.04;100223.88;5027135;28;20030;-74
2021/03/04 00:03:06;;;;;;;54.35;29.52;;;;;;;7.96;57.96;100211.56;5021716;28;20077;-73
2021/03/04 00:05:33;;;;;;;56.50;29.67;;;;;;;7.95;57.94;100205.47;5022627;28;20042;-72
2021/03/04 00:08:00;;;;;;;53.22;29.42;;;;;;;7.96;57.91;100211.56;5022982;28;20060;-71
2021/03/04 00:10:28;;;;;;;53.08;31.75;;;;;;;7.94;57.79;100208.19;5026607;28;20113;-73
2021/03/04 00:12:55;;;;;;;52.33;30.95;;;;;;;7.94;57.83;100198.53;5028656;28;20122;-74
2021/03/04 00:15:25;;;;;;;47.35;28.27;;;;;;;7.93;57.78;100196.84;5030441;28;20052;-73
2021/03/04 00:17:52;;;;;;;51.65;27.95;;;;;;;7.91;57.85;100196.09;5030492;28;20058;-72
2021/03/04 00:20:22;;;;;;;49.60;30.67;;;;;;;7.89;57.90;100190.09;5030133;28;20042;-71
2021/03/04 00:22:49;;;;;;;47.63;29.08;;;;;;;7.88;57.68;100187.56;5037095;28;20077;-72
2021/03/04 00:25:17;;;;;;;40.75;27.55;;;;;;;7.86;57.75;100187.66;5035586;28;20056;-73
2021/03/04 00:27:43;;;;;;;42.00;26.27;;;;;;;7.90;57.71;100180.41;5035144;28;20186;-72
2021/03/04 00:30:12;;;;;;;50.45;29.88;;;;;;;7.89;57.61;100176.09;5035391;28;20038;-71
2021/03/04 00:32:39;;;;;;;50.83;27.83;;;;;;;7.86;57.66;100171.88;5034483;28;20106;-71
2021/03/04 00:35:08;;;;;;;56.22;27.60;;;;;;;7.84;57.69;100169.31;5031372;28;20073;-74
2021/03/04 00:37:36;;;;;;;55.95;29.13;;;;;;;7.81;57.79;100169.53;5015355;28;20152;-70
2021/03/04 00:40:07;;;;;;;61.88;32.90;;;;;;;7.74;57.99;100162.13;5011322;28;20049;-73
2021/03/04 00:42:34;;;;;;;72.72;35.67;;;;;;;7.62;57.85;100159.31;4960910;28;20057;-71
2021/03/04 00:45:00;;;;;;;61.72;34.33;;;;;;;7.51;58.07;100147.75;5012320;28;20053;-72
2021/03/04 00:47:27;;;;;;;62.28;32.30;;;;;;;7.42;58.34;100144.78;5011652;28;20163;-72
2021/03/04 00:49:53;;;;;;;61.00;34.15;;;;;;;7.32;58.36;100138.38;5011225;28;20586;-71
2021/03/04 00:52:19;;;;;;;60.72;33.30;;;;;;;7.23;58.44;100129.25;5012135;28;20060;-72
2021/03/04 00:54:47;;;;;;;67.22;34.97;;;;;;;7.16;58.42;100124.47;5009371;28;20045;-72
2021/03/04 00:57:13;;;;;;;55.38;32.10;;;;;;;7.10;58.63;100122.25;5010384;28;20685;-71
2021/03/04 00:59:39;;;;;;;59.85;34.28;;;;;;;7.01;58.68;100121.84;5010469;28;20340;-72
2021/03/04 01:02:06;;;;;;;62.40;33.08;;;;;;;6.93;58.80;100118.81;5010429;28;20145;-71
2021/03/04 01:04:32;;;;;;;70.97;36.70;;;;;;;6.91;58.96;100112.81;5008223;28;20490;-72
2021/03/04 01:06:58;;;;;;;63.88;33.72;;;;;;;6.86;58.94;100117.50;5008285;28;20049;-72
2021/03/04 01:09:25;;;;;;;58.40;33.28;;;;;;;6.84;59.06;100112.34;5007897;28;20049;-72
2021/03/04 01:11:52;;;;;;;63.38;33.53;;;;;;;6.82;59.18;100105.50;5007484;28;20474;-72
2021/03/04 01:14:18;;;;;;;56.33;30.83;;;;;;;6.83;59.18;100097.53;5008298;28;20069;-72
2021/03/04 01:16:45;;;;;;;65.80;32.53;;;;;;;6.82;59.20;100095.81;5009092;28;20049;-71
2021/03/04 01:19:11;;;;;;;63.17;34.70;;;;;;;6.82;59.08;100095.81;5008139;28;20042;-73
2021/03/04 01:21:38;;;;;;;56.35;34.70;;;;;;;6.81;59.33;100095.94;5007133;28;20048;-72
2021/03/04 01:24:05;;;;;;;57.25;30.73;;;;;;;6.83;59.26;100094.06;5008036;28;20455;-73
2021/03/04 01:26:32;;;;;;;61.92;36.90;;;;;;;6.83;59.30;100084.41;5007483;28;20528;-72
2021/03/04 01:28:59;;;;;;;55.42;32.05;;;;;;;6.80;59.41;100084.56;5007142;28;20096;-75
2021/03/04 01:31:25;;;;;;;60.58;31.80;;;;;;;6.78;59.52;100085.63;5008466;28;20061;-71
2021/03/04 01:33:52;;;;;;;53.40;30.27;;;;;;;6.76;59.60;100079.63;5008414;28;20046;-74
2021/03/04 01:36:18;;;;;;;48.63;27.27;;;;;;;6.77;59.47;100071.66;5006764;28;20046;-71
2021/03/04 01:38:45;;;;;;;53.65;30.10;;;;;;;6.80;59.40;100065.38;5007947;28;20054;-74
2021/03/04 01:41:11;;;;;;;63.60;30.98;;;;;;;6.80;59.46;100068.00;5007677;28;20057;-71
2021/03/04 01:43:37;;;;;;;54.42;31.05;;;;;;;6.81;59.38;100060.03;5006960;28;20113;-72
2021/03/04 01:46:05;;;;;;;52.45;28.20;;;;;;;6.83;59.35;100054.69;5006361;28;20057;-71
2021/03/04 01:48:31;;;;;;;50.70;27.23;;;;;;;6.85;59.20;100055.44;5007427;28;20049;-71
2021/03/04 01:50:58;;;;;;;53.30;29.30;;;;;;;6.87;59.21;100053.56;5007368;28;20154;-72
2021/03/04 01:53:24;;;;;;;45.38;27.77;;;;;;;6.90;59.17;100056.00;5007183;28;20050;-71
2021/03/04 01:55:51;;;;;;;53.28;29.85;;;;;;;6.92;59.25;100055.91;5007116;28;20049;-72
2021/03/04 01:58:18;;;;;;;50.78;30.92;;;;;;;6.94;59.31;100048.78;5006486;28;20048;-71
2021/03/04 02:00:44;;;;;;;55.22;31.35;;;;;;;6.94;59.11;100039.13;5007550;28;20049;-72
2021/03/04 02:03:12;;;;;;;54.60;29.95;;;;;;;6.94;59.28;100039.13;5006437;28;20124;-73
2021/03/04 02:05:38;;;;;;;58.67;30.48;;;;;;;6.93;59.34;100034.78;5005195;28;20045;-71
2021/03/04 02:08:13;;;;;;;55.10;31.08;;;;;;;6.91;59.25;100039.31;5006673;28;20085;-72
2021/03/04 02:10:43;;;;;;;57.25;30.70;;;;;;;6.89;59.27;100033.31;5006508;28;20639;-72
2021/03/04 02:13:16;;;;;;;57.70;30.52;;;;;;;6.81;59.36;100027.69;5005982;28;20486;-72
2021/03/04 02:15:52;;;;;;;53.78;28.63;;;;;;;6.73;59.61;100024.66;5005974;28;20054;-70
2021/03/04 02:18:20;;;;;;;;;;;;;;;6.91;59.08;100013.03;5006062;28;20046;-72
2021/03/04 02:21:22;;;;;;;53.78;29.92;;;;;;;6.67;59.80;100015.38;5006894;28;20004;-72
2021/03/04 02:24:10;;;;;;;52.55;27.40;;;;;;;6.59;59.72;100007.97;5007126;28;20062;-70
2021/03/04 02:26:53;;;;;;;50.22;31.40;;;;;;;6.59;59.76;100010.59;4993806;28;20050;-72
2021/03/04 02:29:23;;;;;;;56.35;29.52;;;;;;;6.55;59.69;99998.59;5007476;28;20549;-72
2021/03/04 02:31:53;;;;;;;48.42;29.63;;;;;;;6.53;59.86;100003.09;5006548;28;20073;-72
2021/03/04 02:34:22;;;;;;;56.70;31.48;;;;;;;6.45;60.06;99989.59;5005734;28;20065;-72
2021/03/04 02:36:50;;;;;;;61.45;30.33;;;;;;;6.42;60.13;99989.78;5005614;28;20049;-71
2021/03/04 02:39:18;;;;;;;57.78;29.67;;;;;;;6.37;60.24;99981.31;5005999;28;20056;-73
2021/03/04 02:41:45;;;;;;;51.38;29.65;;;;;;;6.34;60.33;99984.97;5006324;28;20221;-70
2021/03/04 02:44:14;;;;;;;45.67;25.40;;;;;;;6.33;60.43;99980.66;5009130;28;20474;-71
2021/03/04 02:46:42;;;;;;;58.20;29.92;;;;;;;6.31;60.41;99979.91;5008302;28;20099;-71
2021/03/04 02:49:09;;;;;;;49.60;31.20;;;;;;;6.34;60.22;99984.13;5006718;28;20372;-70
2021/03/04 02:51:37;;;;;;;54.00;29.95;;;;;;;6.35;60.37;99973.53;5006205;28;20594;-71
2021/03/04 02:54:05;;;;;;;50.53;26.98;;;;;;;6.35;60.36;99972.72;5005585;28;20045;-71
2021/03/04 02:56:33;;;;;;;56.72;30.23;;;;;;;6.39;60.28;99966.34;5006713;28;20056;-72
2021/03/04 02:59:02;;;;;;;54.05;31.00;;;;;;;6.43;60.25;99971.31;5006388;28;20133;-72
2021/03/04 03:01:30;;;;;;;56.08;30.70;;;;;;;6.47;60.13;99961.47;5006784;28;20076;-72
2021/03/04 03:03:58;;;;;;;59.38;31.55;;;;;;;6.49;60.07;99964.84;5007120;28;20049;-72
2021/03/04 03:06:26;;;;;;;60.75;32.80;;;;;;;6.52;60.08;99962.06;5003989;28;20053;-72
2021/03/04 03:08:54;;;;;;;57.38;31.92;;;;;;;6.54;60.08;99959.34;5005824;28;20531;-71
2021/03/04 03:11:23;;;;;;;60.50;33.83;;;;;;;6.56;59.96;99942.56;5006218;28;20633;-72
2021/03/04 03:13:51;;;;;;;68.95;33.50;;;;;;;6.59;60.00;99939.75;5005407;28;20045;-71
2021/03/04 03:16:17;;;;;;;63.97;34.67;;;;;;;6.62;60.02;99930.84;5005664;28;20045;-72
2021/03/04 03:18:45;;;;;;;66.43;33.80;;;;;;;6.67;59.97;99937.50;5006502;28;20049;-72
2021/03/04 03:21:12;;;;;;;55.88;30.42;;;;;;;6.72;59.80;99929.34;5006069;28;20049;-72
2021/03/04 03:23:38;;;;;;;61.05;31.40;;;;;;;6.76;59.64;99916.88;5005870;28;20049;-71
2021/03/04 03:26:05;;;;;;;53.63;30.40;;;;;;;6.79;59.60;99925.41;5006160;28;20099;-71
2021/03/04 03:28:31;;;;;;;52.78;29.95;;;;;;;6.85;59.52;99921.56;5005572;28;20046;-74
2021/03/04 03:30:57;;;;;;;55.72;29.67;;;;;;;6.88;59.48;99924.00;5005389;28;20418;-71
2021/03/04 03:33:25;;;;;;;62.38;31.85;;;;;;;6.89;59.50;99916.00;5005740;28;20727;-71
2021/03/04 03:35:53;;;;;;;59.63;33.08;;;;;;;6.91;59.46;99901.94;5003589;28;20058;-74
2021/03/04 03:38:21;;;;;;;57.55;34.60;;;;;;;6.93;59.35;99898.25;5004900;28;20679;-71
2021/03/04 03:40:49;;;;;;;58.50;31.90;;;;;;;6.89;59.47;99895.00;5004681;28;20050;-72
2021/03/04 03:43:17;;;;;;;49.10;27.45;;;;;;;6.88;59.48;99901.19;4999772;28;20426;-72
2021/03/04 03:45:45;;;;;;;52.83;29.35;;;;;;;6.83;59.51;99892.78;4984865;28;20127;-72
2021/03/04 03:48:13;;;;;;;51.75;31.05;;;;;;;6.79;59.83;99882.53;4987114;28;20042;-72
2021/03/04 03:50:41;;;;;;;49.10;27.88;;;;;;;6.74;59.82;99884.63;4986540;28;20129;-72
2021/03/04 03:53:08;;;;;;;46.88;27.40;;;;;;;6.72;59.88;99886.50;4986881;28;20064;-73
2021/03/04 03:55:35;;;;;;;50.17;29.00;;;;;;;6.66;60.11;99883.34;4985112;28;20069;-70
2021/03/04 03:58:03;;;;;;;62.90;31.92;;;;;;;6.63;60.06;99888.75;4985699;28;20117;-72
2021/03/04 04:00:30;;;;;;;56.08;30.88;;;;;;;6.59;60.19;99896.91;4985825;28;20050;-72
2021/03/04 04:03:00;;;;;;;58.50;29.90;;;;;;;6.55;60.41;99893.63;4985168;28;20108;-70
2021/03/04 04:05:27;;;;;;;56.45;32.78;;;;;;;6.49;60.40;99892.22;4984319;28;20108;-71
2021/03/04 04:07:54;;;;;;;53.05;29.90;;;;;;;6.47;60.54;99882.78;4985141;28;20046;-72
2021/03/04 04:10:23;;;;;;;64.22;30.73;;;;;;;6.46;60.56;99878.47;4985543;28;20100;-72
2021/03/04 04:12:50;;;;;;;53.65;31.27;;;;;;;6.44;60.63;99880.34;4985268;28;20050;-71
2021/03/04 04:15:17;;;;;;;61.70;32.63;;;;;;;6.46;60.49;99881.94;4985605;28;20532;-71
2021/03/04 04:17:43;;;;;;;59.97;32.75;;;;;;;6.48;60.46;99876.56;4985014;28;20383;-71
2021/03/04 04:20:10;;;;;;;51.85;26.77;;;;;;;6.48;60.59;99873.94;4984848;28;20120;-71
2021/03/04 04:22:38;;;;;;;54.60;27.35;;;;;;;6.48;60.61;99874.81;4985343;28;20050;-71
2021/03/04 04:25:06;;;;;;;47.70;26.60;;;;;;;6.48;60.63;99869.56;4985794;28;20051;-72
2021/03/04 04:27:33;;;;;;;45.38;27.02;;;;;;;6.46;60.74;99868.81;4990433;28;20065;-72
2021/03/04 04:29:59;;;;;;;50.65;27.15;;;;;;;6.46;60.81;99875.84;4985141;28;20042;-72
2021/03/04 04:32:26;;;;;;;56.13;31.27;;;;;;;6.43;60.83;99865.56;4989637;28;20054;-71
2021/03/04 04:34:52;;;;;;;47.15;26.10;;;;;;;6.42;60.83;99869.09;5001641;28;20049;-72
2021/03/04 04:37:19;;;;;;;51.35;28.10;;;;;;;6.38;60.92;99854.50;4995656;28;20030;-71
2021/03/04 04:39:45;;;;;;;47.42;26.83;;;;;;;6.38;60.87;99851.88;5005184;28;20056;-72
2021/03/04 04:42:11;;;;;;;50.17;27.13;;;;;;;6.36;60.99;99845.88;5006522;28;20483;-73
2021/03/04 04:44:39;;;;;;;43.85;27.52;;;;;;;6.32;61.12;99851.31;5005634;28;20046;-72
2021/03/04 04:47:05;;;;;;;47.08;24.95;;;;;;;6.32;60.97;99848.69;5004956;28;20053;-71
2021/03/04 04:49:32;;;;;;;42.42;26.42;;;;;;;6.31;61.03;99846.97;5004962;28;20517;-72
2021/03/04 04:51:58;;;;;;;41.50;24.33;;;;;;;6.28;61.09;99841.94;5004490;28;20053;-72
2021/03/04 04:54:24;;;;;;;54.28;29.52;;;;;;;6.24;61.17;99842.22;5003898;28;20052;-71
2021/03/04 04:56:51;;;;;;;48.50;25.60;;;;;;;6.23;61.26;99838.75;5006085;28;20544;-72
2021/03/04 04:59:17;;;;;;;49.53;28.25;;;;;;;6.22;61.17;99831.81;5008033;28;20056;-72
2021/03/04 05:01:45;;;;;;;48.92;26.17;;;;;;;6.20;61.39;99831.06;5007598;28;20045;-71
2021/03/04 05:04:11;;;;;;;58.35;25.13;;;;;;;6.19;61.20;99821.50;5006854;28;20048;-74
2021/03/04 05:06:37;;;;;;;56.17;30.15;;;;;;;6.17;61.30;99828.63;5004798;28;20117;-72
2021/03/04 05:09:04;;;;;;;45.40;25.58;;;;;;;6.15;61.35;99830.50;5007460;28;20537;-71
2021/03/04 05:11:30;;;;;;;46.45;25.88;;;;;;;6.13;61.31;99835.84;5006920;28;20053;-72
2021/03/04 05:13:57;;;;;;;44.13;27.38;;;;;;;6.14;61.42;99836.69;5007241;28;20122;-72
2021/03/04 05:16:23;;;;;;;48.10;26.10;;;;;;;6.16;61.30;99828.72;5007658;28;20569;-71
2021/03/04 05:18:50;;;;;;;49.30;27.45;;;;;;;6.19;61.37;99831.16;5008194;28;20662;-72
2021/03/04 05:21:17;;;;;;;47.10;26.70;;;;;;;6.18;61.36;99827.69;5007295;28;20053;-72
2021/03/04 05:23:43;;;;;;;52.50;27.42;;;;;;;6.25;61.39;99826.38;5008462;28;20047;-73
2021/03/04 05:26:09;;;;;;;43.72;24.67;;;;;;;6.42;61.01;99821.88;5006931;28;20065;-74
2021/03/04 05:28:36;;;;;;;43.08;25.55;;;;;;;6.59;60.68;99824.31;5006897;28;20115;-72
2021/03/04 05:31:02;;;;;;;50.28;26.77;;;;;;;6.73;60.48;99825.19;5005987;28;20543;-73
2021/03/04 05:33:29;;;;;;;54.58;27.95;;;;;;;6.82;60.25;99824.59;5006451;28;20053;-73
2021/03/04 05:35:56;;;;;;;45.20;24.70;;;;;;;6.91;60.11;99821.38;5005702;28;20053;-72
2021/03/04 05:38:22;;;;;;;45.80;26.83;;;;;;;7.01;59.92;99814.63;5005301;28;20049;-71
2021/03/04 05:40:49;;;;;;;42.80;28.00;;;;;;;7.08;59.89;99815.91;4991148;28;20054;-71
2021/03/04 05:43:15;;;;;;;51.83;30.90;;;;;;;7.10;59.94;99817.59;4986707;28;20422;-73
2021/03/04 05:45:42;;;;;;;55.13;33.13;;;;;;;7.13;60.17;99822.63;5001486;28;20103;-74
2021/03/04 05:48:10;;;;;;;47.60;27.52;;;;;;;7.16;60.34;99822.44;5006571;28;20050;-76
2021/03/04 05:50:47;;;;;;;43.38;27.00;;;;;;;7.14;60.40;99808.56;4990033;28;20483;-77
2021/03/04 05:53:19;;;;;;;45.45;24.98;;;;;;;7.10;60.61;99813.19;4990699;28;20742;-77
2021/03/04 05:55:47;;;;;;;46.35;25.92;;;;;;;7.15;60.70;99823.38;4985399;28;20058;-73
2021/03/04 05:58:16;;;;;;;50.47;28.23;;;;;;;7.19;60.78;99823.09;4986248;28;20055;-72
2021/03/04 06:00:44;;;;;;;56.70;29.20;;;;;;;7.23;60.83;99818.47;4977566;28;20049;-72
2021/03/04 06:03:13;;;;;;;52.42;32.03;;;;;;;7.31;60.58;99808.31;5004768;28;20433;-74
2021/03/04 06:05:41;;;;;;;43.60;27.10;;;;;;;7.48;60.39;99817.69;5004130;28;20618;-75
2021/03/04 06:08:10;;;;;;;48.35;30.63;;;;;;;7.59;60.22;99811.72;4973889;28;20080;-73
2021/03/04 06:10:38;;;;;;;44.95;25.80;;;;;;;7.69;59.88;99819.81;5004580;28;20053;-73
2021/03/04 06:13:05;;;;;;;48.67;28.52;;;;;;;7.79;59.78;99821.72;4987864;28;20058;-75
2021/03/04 06:15:32;;;;;;;52.72;30.20;;;;;;;7.87;59.53;99818.59;5002287;28;20058;-74
2021/03/04 06:18:00;;;;;;;48.75;28.48;;;;;;;7.94;59.55;99817.22;4985119;28;20047;-75
2021/03/04 06:20:36;;;;;;;47.65;29.10;;;;;;;7.96;59.38;99811.84;4987066;28;20090;-74
2021/03/04 06:23:03;;;;;;;46.88;28.30;;;;;;;7.90;59.43;99807.84;4986287;28;20042;-75
2021/03/04 06:25:30;;;;;;;58.65;34.85;;;;;;;7.86;59.64;99811.63;4976737;28;20050;-74
2021/03/04 06:27:58;;;;;;;52.47;31.45;;;;;;;8.02;59.33;99806.16;5005375;28;20111;-73
2021/03/04 06:30:25;;;;;;;61.05;42.00;;;;;;;8.06;59.34;99794.47;5005434;28;20050;-75
2021/03/04 06:32:56;;;;;;;60.20;39.05;;;;;;;8.06;59.63;99801.53;5004195;28;20068;-74
2021/03/04 06:35:24;;;;;;;53.97;30.27;;;;;;;8.20;59.30;99819.84;5001166;28;20046;-72
2021/03/04 06:37:51;;;;;;;51.03;34.15;;;;;;;8.28;58.95;99827.19;5001621;28;20668;-73
2021/03/04 06:40:20;;;;;;;49.30;29.10;;;;;;;8.32;59.16;99828.66;5001915;28;20046;-72
2021/03/04 06:42:46;;;;;;;62.42;33.85;;;;;;;8.34;59.14;99816.25;5007415;28;20046;-72
2021/03/04 06:45:33;;;;;;;58.58;38.00;;;;;;;8.34;59.33;99826.78;5019119;28;20046;-77
2021/03/04 06:48:11;;;;;;;55.97;41.67;;;;;;;8.34;59.26;99816.25;5016648;28;20077;-71
2021/03/04 06:50:39;;;;;;;56.85;39.83;;;;;;;8.26;59.83;99818.56;5011436;28;20045;-71
2021/03/04 06:53:14;;;;;;;59.40;40.20;;;;;;;8.23;60.02;99830.16;5017477;28;20205;-72
2021/03/04 06:55:50;;;;;;;47.47;31.10;;;;;;;8.33;59.74;99832.97;5010334;28;20059;-72
2021/03/04 06:58:24;;;;;;;54.50;42.60;;;;;;;8.40;59.59;99828.97;5021122;28;20057;-71
2021/03/04 07:01:03;;;;;;;55.90;40.78;;;;;;;8.26;60.03;99834.34;5017698;28;20519;-71
2021/03/04 07:03:40;;;;;;;51.28;31.80;;;;;;;8.29;59.95;99842.88;5011454;28;20513;-71
2021/03/04 07:06:08;;;;;;;54.40;39.88;;;;;;;8.33;59.72;99828.53;5022224;28;20061;-72
2021/03/04 07:08:38;;;;;;;58.55;39.08;;;;;;;8.27;60.06;99830.78;5018954;28;20452;-71
2021/03/04 07:11:08;;;;;;;58.25;39.10;;;;;;;8.28;60.10;99832.44;5017987;28;20045;-70
2021/03/04 07:13:37;;;;;;;67.32;40.08;;;;;;;8.31;60.20;99834.88;5018576;28;20528;-72
2021/03/04 07:16:09;;;;;;;55.05;38.78;;;;;;;8.36;60.15;99840.66;5018795;28;20052;-75
2021/03/04 07:18:42;;;;;;;53.90;38.22;;;;;;;8.40;60.02;99815.81;5017334;28;20053;-72
2021/03/04 07:21:12;;;;;;;53.95;38.20;;;;;;;8.45;59.91;99824.25;5020055;28;20048;-72
2021/03/04 07:23:43;;;;;;;56.67;38.75;;;;;;;8.39;59.95;99835.16;5018346;28;20280;-72
2021/03/04 07:26:11;;;;;;;61.92;44.33;;;;;;;8.42;59.84;99829.72;4994769;28;20050;-71
2021/03/04 07:28:41;;;;;;;57.95;42.60;;;;;;;8.36;59.95;99832.75;4991666;28;20053;-71
2021/03/04 07:31:10;;;;;;;59.50;43.88;;;;;;;8.30;60.05;99833.19;4985433;28;20053;-70
2021/03/04 07:33:38;;;;;;;60.45;44.60;;;;;;;8.31;59.92;99848.03;4961807;28;20054;-71
2021/03/04 07:36:08;;;;;;;53.95;35.05;;;;;;;8.51;59.63;99842.22;4977705;28;20089;-72
2021/03/04 07:38:36;;;;;;;56.55;35.45;;;;;;;8.48;59.54;99834.56;4981841;28;20103;-72
2021/03/04 07:41:07;;;;;;;54.15;38.83;;;;;;;8.47;59.59;99837.31;4993257;28;20088;-71
2021/03/04 07:43:47;;;;;;;62.10;40.17;;;;;;;8.64;59.32;99841.38;4998558;28;20054;-74
2021/03/04 07:46:36;;;;;;;60.08;41.05;;;;;;;8.70;58.83;99835.69;4997686;28;20054;-69
2021/03/04 07:49:04;;;;;;;65.28;45.95;;;;;;;8.59;59.24;99832.00;4988828;28;20042;-72
2021/03/04 07:51:42;;;;;;;65.43;50.53;;;;;;;8.49;59.42;99819.63;4978109;28;20042;-73
2021/03/04 07:54:09;;;;;;;75.07;52.88;;;;;;;8.40;59.36;99829.78;4976954;28;20133;-71
2021/03/04 07:56:35;;;;;;;58.92;44.40;;;;;;;8.38;59.56;99829.06;4994534;28;20053;-71
2021/03/04 07:59:10;;;;;;;67.57;47.00;;;;;;;8.42;59.85;99832.34;5001093;28;20053;-78
2021/03/04 08:01:40;;;;;;;70.97;52.75;;;;;;;8.49;59.21;99835.41;4999811;28;20065;-75
2021/03/04 08:04:06;;;;;;;71.75;54.22;;;;;;;8.47;58.73;99840.78;5000064;28;20056;-70
2021/03/04 08:06:43;;;;;;;71.97;52.80;;;;;;;8.46;58.87;99836.44;4997978;28;20049;-71
2021/03/04 08:09:10;;;;;;;64.30;49.30;;;;;;;8.34;59.15;99834.66;4998283;28;20392;-72
2021/03/04 08:11:37;;;;;;;69.72;54.88;;;;;;;8.28;58.69;99835.91;4997964;28;20787;-74
2021/03/04 08:14:14;;;;;;;68.60;50.42;;;;;;;8.15;58.82;99853.50;4997284;28;20053;-73
2021/03/04 08:16:42;;;;;;;60.22;45.65;;;;;;;8.12;58.52;99849.31;4998313;28;20538;-72
2021/03/04 08:19:09;;;;;;;64.55;51.85;;;;;;;8.11;58.77;99849.41;4991544;28;20057;-71
2021/03/04 08:21:40;;;;;;;69.57;50.47;;;;;;;8.14;58.72;99852.69;4981793;28;20189;-72
2021/03/04 08:24:12;;;;;;;65.15;46.63;;;;;;;7.97;58.43;99861.69;4976552;28;20062;-72
2021/03/04 08:26:39;;;;;;;67.22;48.25;;;;;;;7.94;58.65;99861.06;4977534;28;20596;-71
2021/03/04 08:29:10;;;;;;;64.15;46.53;;;;;;;7.91;58.22;99866.56;4975966;28;20707;-71
2021/03/04 08:31:44;;;;;;;66.03;43.20;;;;;;;7.96;57.97;99865.28;4979139;28;20129;-72
2021/03/04 08:34:11;;;;;;;63.17;47.85;;;;;;;7.96;57.59;99861.78;4980535;28;20046;-71
2021/03/04 08:36:41;;;;;;;61.63;40.78;;;;;;;8.00;58.00;99865.94;4978653;28;20076;-70
2021/03/04 08:39:08;;;;;;;55.58;33.33;;;;;;;8.08;57.22;99854.88;4978540;28;20621;-71
2021/03/04 08:41:34;;;;;;;60.03;45.30;;;;;;;8.13;56.51;99844.88;4997325;28;20083;-71
2021/03/04 08:44:12;;;;;;;51.90;34.03;;;;;;;8.11;56.43;99862.56;4998432;28;20046;-72
2021/03/04 08:46:40;;;;;;;60.30;47.33;;;;;;;8.09;56.17;99864.47;5001001;28;20062;-72
2021/03/04 08:49:07;;;;;;;57.13;37.53;;;;;;;8.15;56.42;99875.38;5002176;28;20068;-76
2021/03/04 08:51:42;;;;;;;64.03;43.15;;;;;;;8.22;56.23;99871.38;5001721;28;20045;-71
2021/03/04 08:54:19;;;;;;;60.13;44.40;;;;;;;8.28;56.07;99871.91;4988697;28;20061;-73
2021/03/04 08:56:55;;;;;;;66.70;48.08;;;;;;;8.27;55.69;99871.09;4986024;28;20064;-71
2021/03/04 08:59:22;;;;;;;62.88;47.15;;;;;;;8.25;55.63;99865.09;4991001;28;20046;-72
2021/03/04 09:01:49;;;;;;;60.92;49.83;;;;;;;8.19;55.86;99857.59;4989030;28;20526;-74
2021/03/04 09:04:20;;;;;;;75.97;51.13;;;;;;;8.21;56.37;99872.34;4999753;28;20052;-72
2021/03/04 09:06:46;;;;;;;72.93;48.53;;;;;;;8.26;56.43;99864.13;4994259;28;20061;-73
2021/03/04 09:09:21;;;;;;;65.40;46.20;;;;;;;8.24;56.57;99866.84;4991842;28;20053;-77
2021/03/04 09:11:49;;;;;;;69.93;50.00;;;;;;;8.24;56.38;99864.22;4985436;28;20724;-73
2021/03/04 09:14:16;;;;;;;68.15;53.10;;;;;;;8.26;56.44;99856.22;4984355;28;20045;-71
2021/03/04 09:16:44;;;;;;;69.07;44.65;;;;;;;8.24;56.76;99860.75;4975906;28;20580;-71
2021/03/04 09:19:11;;;;;;;70.15;43.78;;;;;;;8.26;56.34;99853.59;4992363;28;20103;-73
2021/03/04 09:21:38;;;;;;;73.05;50.13;;;;;;;8.34;56.30;99853.91;4991521;28;20144;-72
2021/03/04 09:24:06;;;;;;;74.60;49.88;;;;;;;8.43;55.85;99852.47;4984699;28;20539;-73
2021/03/04 09:26:34;;;;;;;63.28;44.95;;;;;;;8.51;55.70;99839.59;4996550;28;20646;-73
2021/03/04 09:29:02;;;;;;;58.65;42.80;;;;;;;8.57;55.51;99847.09;4991885;28;20081;-73
2021/03/04 09:31:28;;;;;;;59.05;41.08;;;;;;;8.68;55.12;99850.72;4993672;28;20072;-70
2021/03/04 09:33:59;;;;;;;57.63;46.60;;;;;;;8.63;54.61;99850.22;4998497;28;20096;-79
2021/03/04 09:36:26;;;;;;;66.65;45.63;;;;;;;8.56;55.13;99842.75;4985679;28;20060;-74
2021/03/04 09:38:56;;;;;;;65.63;44.47;;;;;;;8.61;55.21;99856.44;4977835;28;20058;-75
2021/03/04 09:41:24;;;;;;;66.55;48.25;;;;;;;8.66;55.07;99860.53;4999388;28;20053;-75
2021/03/04 09:43:53;;;;;;;66.63;47.20;;;;;;;8.52;55.20;99854.47;4999185;28;20065;-75
2021/03/04 09:46:29;;;;;;;60.78;47.28;;;;;;;8.51;55.20;99850.13;4995814;28;20085;-75
2021/03/04 09:49:05;;;;;;;66.18;47.08;;;;;;;8.46;55.28;99846.97;4986535;28;20057;-72
2021/03/04 09:51:36;;;;;;;62.38;43.85;;;;;;;8.61;55.10;99850.34;4978224;28;20046;-73
2021/03/04 09:54:03;;;;;;;65.60;43.22;;;;;;;8.70;54.95;99854.13;4988862;28;20050;-71
2021/03/04 09:56:30;;;;;;;65.72;46.53;;;;;;;8.63;54.58;99847.59;4992746;28;20054;-73
2021/03/04 09:58:57;;;;;;;66.80;48.35;;;;;;;8.55;54.56;99851.63;4990106;28;20660;-74
2021/03/04 10:01:32;;;;;;;69.65;43.85;;;;;;;8.69;55.12;99847.97;4982902;28;20046;-74
2021/03/04 10:04:05;;;;;;;60.50;40.65;;;;;;;8.89;54.62;99853.63;4982472;28;20574;-82
2021/03/04 10:06:36;;;;;;;70.47;53.58;;;;;;;8.92;54.40;99854.25;4982622;28;20050;-73
2021/03/04 10:09:05;;;;;;;73.97;50.35;;;;;;;8.88;54.75;99854.59;4989226;28;20058;-73
2021/03/04 10:11:32;;;;;;;74.82;52.10;;;;;;;8.92;54.72;99861.31;4995700;28;20570;-73
2021/03/04 10:14:09;;;;;;;74.53;50.08;;;;;;;8.97;54.54;99860.03;4998466;28;20081;-73
2021/03/04 10:16:36;;;;;;;66.50;48.97;;;;;;;8.98;54.55;99864.34;4998042;28;20179;-74
2021/03/04 10:19:03;;;;;;;65.00;44.55;;;;;;;8.93;54.64;99869.09;4998181;28;20045;-73
2021/03/04 10:21:29;;;;;;;67.25;42.15;;;;;;;8.89;54.72;99874.69;4998154;28;20046;-72
2021/03/04 10:23:56;;;;;;;66.68;40.35;;;;;;;8.90;54.85;99876.38;5000563;28;20058;-74
2021/03/04 10:26:23;;;;;;;76.55;49.47;;;;;;;9.05;54.85;99872.63;4992589;28;20049;-73
2021/03/04 10:28:50;;;;;;;70.13;44.40;;;;;;;9.14;54.21;99864.06;4990525;28;20066;-75
2021/03/04 10:31:17;;;;;;;66.07;44.03;;;;;;;9.10;54.21;99864.41;4992416;28;20064;-79
2021/03/04 10:33:44;;;;;;;69.00;49.90;;;;;;;9.12;53.87;99859.88;4997053;28;20644;-73
2021/03/04 10:36:10;;;;;;;66.80;42.17;;;;;;;9.14;53.92;99861.44;5002477;28;20120;-77
2021/03/04 10:38:38;;;;;;;66.72;41.08;;;;;;;9.28;53.68;99859.59;5003371;28;20141;-76
2021/03/04 10:41:07;;;;;;;70.85;45.72;;;;;;;9.28;53.70;99864.88;4996200;28;20528;-73
2021/03/04 10:43:34;;;;;;;68.60;50.00;;;;;;;9.29;53.19;99861.25;4997074;28;20138;-75
2021/03/04 10:46:01;;;;;;;68.68;50.40;;;;;;;9.18;53.00;99859.41;4998878;28;20369;-78
2021/03/04 10:48:32;;;;;;;66.90;45.88;;;;;;;9.07;53.41;99867.25;4997870;28;20050;-77
2021/03/04 10:51:00;;;;;;;69.05;44.70;;;;;;;9.02;53.59;99864.13;4994327;28;20104;-75
2021/03/04 10:53:27;;;;;;;67.85;48.90;;;;;;;8.94;53.79;99867.31;4996628;28;20617;-72
2021/03/04 10:55:54;;;;;;;64.28;43.88;;;;;;;8.98;53.82;99860.84;4992386;28;20639;-74
2021/03/04 10:58:20;;;;;;;69.85;46.67;;;;;;;8.95;53.64;99864.56;4988715;28;20050;-77
2021/03/04 11:00:50;;;;;;;71.78;44.95;;;;;;;8.92;54.07;99859.50;4993756;28;20613;-74
2021/03/04 11:03:16;;;;;;;66.13;46.22;;;;;;;8.94;54.06;99854.97;4996569;28;20109;-74
2021/03/04 11:05:43;;;;;;;61.65;43.08;;;;;;;8.97;54.06;99856.56;4995084;28;20057;-73
2021/03/04 11:08:11;;;;;;;65.70;49.15;;;;;;;9.00;53.88;99851.06;4995638;28;20103;-73
2021/03/04 11:10:38;;;;;;;63.88;46.28;;;;;;;8.88;54.04;99858.06;4997347;28;20054;-75
2021/03/04 11:13:05;;;;;;;68.45;54.05;;;;;;;8.86;54.17;99857.34;4999387;28;20121;-74
2021/03/04 11:15:31;;;;;;;60.45;39.42;;;;;;;8.89;54.19;99853.63;4985750;28;20061;-74
2021/03/04 11:17:59;;;;;;;67.63;47.35;;;;;;;8.92;54.29;99854.25;4995454;28;20395;-74
2021/03/04 11:20:25;;;;;;;66.90;49.53;;;;;;;8.87;54.34;99855.53;4989588;28;20122;-74
2021/03/04 11:22:52;;;;;;;68.50;49.80;;;;;;;8.74;54.86;99848.50;4987849;28;20049;-74
2021/03/04 11:25:18;;;;;;;60.78;42.35;;;;;;;8.72;54.51;99852.22;4995308;28;20053;-75
2021/03/04 11:27:45;;;;;;;71.30;53.42;;;;;;;8.70;54.33;99840.94;5029613;28;20046;-75
2021/03/04 11:30:12;;;;;;;66.32;48.60;;;;;;;8.56;54.80;99848.03;5014243;28;20570;-74